Time;durP1;ratioP1;P1;durP2;ratioP2;P2;SDS_P1;SDS_P2;PMS_P1;PMS_P2;Temp;Humidity;BMP_temperature;BMP_pressure;BME280_temperature;BME280_humidity;BME280_pressure;Samples;Min_cycle;Max_cycle;Signal;HPM_P1;HPM_P2
2023/12/01 00:00:37;;;;;;;29.00;17.17;;;2.80;99.90;;;;;;5097661;28;20192;-76
2023/12/01 00:03:02;;;;;;;25.80;16.67;;;2.90;99.90;;;;;;5097499;28;20231;-76
2023/12/01 00:05:28;;;;;;;31.00;17.47;;;2.80;99.90;;;;;;5095911;28;20171;-78
2023/12/01 00:07:54;;;;;;;25.20;15.17;;;2.80;99.90;;;;;;5095648;28;20732;-77
2023/12/01 00:10:21;;;;;;;21.27;15.97;;;2.90;99.90;;;;;;5095221;28;20207;-79
2023/12/01 00:12:46;;;;;;;25.00;16.40;;;2.90;99.90;;;;;;5095301;28;20160;-79
2023/12/01 00:15:12;;;;;;;25.70;16.47;;;2.80;99.90;;;;;;5077296;28;20233;-80
2023/12/01 00:17:38;;;;;;;25.97;16.63;;;2.90;99.90;;;;;;5094706;28;20182;-79
2023/12/01 00:20:04;;;;;;;25.50;16.53;;;2.90;99.90;;;;;;5096067;28;20170;-78
2023/12/01 00:22:30;;;;;;;27.83;17.13;;;2.90;99.90;;;;;;5095858;28;20208;-81
2023/12/01 00:24:56;;;;;;;25.07;17.07;;;2.90;99.90;;;;;;5096068;28;20254;-78
2023/12/01 00:27:22;;;;;;;26.77;17.37;;;2.90;99.90;;;;;;5103659;28;20205;-78
2023/12/01 00:29:47;;;;;;;27.53;16.17;;;3.00;99.90;;;;;;5113300;28;20176;-78
2023/12/01 00:32:13;;;;;;;28.03;17.27;;;3.10;99.90;;;;;;5096292;28;20269;-79
2023/12/01 00:34:39;;;;;;;27.60;18.10;;;3.10;99.90;;;;;;5097267;28;20678;-78
2023/12/01 00:37:04;;;;;;;26.63;18.30;;;3.10;99.90;;;;;;5096701;28;20189;-80
2023/12/01 00:39:30;;;;;;;28.50;17.30;;;3.10;99.90;;;;;;5102059;28;20175;-80
2023/12/01 00:41:56;;;;;;;31.03;16.73;;;3.10;99.90;;;;;;5077656;28;20218;-80
2023/12/01 00:44:22;;;;;;;24.80;16.73;;;3.00;99.90;;;;;;5095287;28;20178;-80
2023/12/01 00:46:47;;;;;;;24.83;17.00;;;3.00;99.90;;;;;;5077129;28;20186;-78
2023/12/01 00:49:13;;;;;;;25.43;16.73;;;3.10;99.90;;;;;;5111250;28;20175;-78
2023/12/01 00:51:43;;;;;;;28.27;17.37;;;3.10;99.90;;;;;;5083617;28;20168;-79
2023/12/01 00:54:11;;;;;;;24.03;16.50;;;3.10;99.90;;;;;;5098712;28;20269;-80
2023/12/01 00:56:36;;;;;;;29.33;17.80;;;3.20;99.90;;;;;;5076733;28;20181;-78
2023/12/01 00:59:03;;;;;;;29.73;17.17;;;3.20;99.90;;;;;;5061051;28;20542;-79
2023/12/01 01:01:30;;;;;;;23.00;16.53;;;3.10;99.90;;;;;;5094814;28;20197;-78
2023/12/01 01:03:57;;;;;;;24.10;16.00;;;3.10;99.90;;;;;;5094323;28;20173;-78
2023/12/01 01:06:23;;;;;;;24.80;16.07;;;3.00;99.90;;;;;;5094221;28;20436;-79
2023/12/01 01:08:48;;;;;;;24.37;16.97;;;3.00;99.90;;;;;;5094679;28;20201;-79
2023/12/01 01:11:14;;;;;;;22.37;15.43;;;3.00;99.90;;;;;;5105888;28;20179;-77
2023/12/01 01:13:40;;;;;;;28.27;16.20;;;3.00;99.90;;;;;;5098195;28;20174;-79
2023/12/01 01:16:08;;;;;;;26.67;16.03;;;3.00;99.90;;;;;;5094843;28;20180;-77
2023/12/01 01:18:34;;;;;;;23.90;16.07;;;3.10;99.90;;;;;;5094967;28;20614;-80
2023/12/01 01:21:00;;;;;;;23.07;15.63;;;3.20;99.90;;;;;;5094558;28;20176;-78
2023/12/01 01:23:27;;;;;;;26.80;16.07;;;3.20;99.90;;;;;;5077211;28;20207;-79
2023/12/01 01:25:53;;;;;;;24.87;15.53;;;3.10;99.90;;;;;;5094519;28;20176;-82
2023/12/01 01:28:18;;;;;;;23.63;16.40;;;3.10;99.90;;;;;;5094936;28;20565;-78
2023/12/01 01:30:44;;;;;;;23.00;15.83;;;3.10;99.90;;;;;;5077465;28;20625;-81
2023/12/01 01:33:10;;;;;;;23.93;15.50;;;3.10;99.90;;;;;;5095165;28;20583;-77
2023/12/01 01:35:36;;;;;;;23.17;16.03;;;3.20;99.90;;;;;;5099056;28;20175;-76
2023/12/01 01:38:01;;;;;;;24.83;15.77;;;3.10;99.90;;;;;;5100184;28;20525;-78
2023/12/01 01:40:27;;;;;;;21.40;14.53;;;3.20;99.90;;;;;;5094801;28;20185;-79
2023/12/01 01:42:53;;;;;;;20.27;14.30;;;3.20;99.90;;;;;;5095014;28;20653;-80
2023/12/01 01:45:18;;;;;;;15.17;11.67;;;3.10;99.90;;;;;;5093882;28;20657;-79
2023/12/01 01:47:44;;;;;;;18.33;12.87;;;3.10;99.90;;;;;;5096525;28;20653;-78
2023/12/01 01:50:10;;;;;;;20.33;12.07;;;3.20;99.90;;;;;;5106726;28;20176;-79
2023/12/01 01:52:39;;;;;;;18.77;11.53;;;3.20;99.90;;;;;;5099379;28;20166;-77
2023/12/01 01:55:07;;;;;;;14.33;11.17;;;3.20;99.90;;;;;;5112867;28;20209;-79
2023/12/01 01:57:40;;;;;;;13.40;11.00;;;3.20;99.90;;;;;;5100126;28;20161;-80
2023/12/01 02:00:07;;;;;;;16.27;11.47;;;3.20;99.90;;;;;;5093912;28;20165;-78
2023/12/01 02:02:35;;;;;;;15.00;11.50;;;3.20;99.90;;;;;;5094032;28;20174;-78
2023/12/01 02:05:01;;;;;;;14.53;11.00;;;3.20;99.90;;;;;;5093104;28;20189;-80
2023/12/01 02:07:27;;;;;;;14.53;10.70;;;3.10;99.90;;;;;;5105046;28;20591;-80
2023/12/01 02:09:57;;;;;;;15.30;10.60;;;3.20;99.90;;;;;;5114039;28;20181;-79
2023/12/01 02:12:22;;;;;;;14.57;10.77;;;3.10;99.90;;;;;;5114194;28;20199;-82
2023/12/01 02:14:48;;;;;;;15.73;11.30;;;3.10;99.90;;;;;;5112721;28;20671;-81
2023/12/01 02:17:14;;;;;;;14.33;10.53;;;3.10;99.90;;;;;;5114371;28;20267;-79
2023/12/01 02:19:40;;;;;;;15.07;11.10;;;3.20;99.90;;;;;;5112763;28;20614;-79
2023/12/01 02:22:05;;;;;;;15.43;11.40;;;3.20;99.90;;;;;;5104163;28;20176;-77
2023/12/01 02:24:31;;;;;;;14.50;11.30;;;3.20;99.90;;;;;;5106788;28;20633;-77
2023/12/01 02:26:57;;;;;;;12.90;9.90;;;3.20;99.90;;;;;;5119634;28;20175;-79
2023/12/01 02:29:23;;;;;;;16.83;10.73;;;3.20;99.90;;;;;;5114573;28;20181;-79
2023/12/01 02:31:48;;;;;;;12.83;10.60;;;3.20;99.90;;;;;;5117028;28;20174;-78
2023/12/01 02:34:14;;;;;;;15.27;11.13;;;3.20;99.90;;;;;;5114679;28;20250;-77
2023/12/01 02:36:40;;;;;;;13.53;10.57;;;3.20;99.90;;;;;;5117647;28;20649;-78
2023/12/01 02:39:07;;;;;;;15.67;10.73;;;3.20;99.90;;;;;;5117168;28;20541;-81
2023/12/01 02:41:33;;;;;;;13.83;10.87;;;3.20;99.90;;;;;;5114467;28;20170;-80
2023/12/01 02:43:59;;;;;;;15.93;11.00;;;3.20;99.90;;;;;;5114812;28;20535;-79
2023/12/01 02:46:25;;;;;;;12.43;10.00;;;3.20;99.90;;;;;;5113813;28;20176;-80
2023/12/01 02:48:51;;;;;;;12.80;10.50;;;3.20;99.90;;;;;;5114402;28;20261;-81
2023/12/01 02:51:17;;;;;;;15.80;10.57;;;3.20;99.90;;;;;;5114100;28;20220;-79
2023/12/01 02:53:42;;;;;;;14.33;10.47;;;3.10;99.90;;;;;;5113349;28;20205;-79
2023/12/01 02:56:09;;;;;;;14.97;10.47;;;3.10;99.90;;;;;;5122724;28;20175;-79
2023/12/01 02:58:36;;;;;;;14.63;10.70;;;3.10;99.90;;;;;;5118765;28;20173;-80
2023/12/01 03:01:03;;;;;;;14.03;10.40;;;3.10;99.90;;;;;;5114151;28;20222;-79
2023/12/01 03:03:29;;;;;;;16.00;11.10;;;3.10;99.90;;;;;;5114192;28;20214;-80
2023/12/01 03:05:54;;;;;;;16.20;11.43;;;3.00;99.90;;;;;;5113249;28;20171;-78
2023/12/01 03:08:20;;;;;;;14.57;10.67;;;3.10;99.90;;;;;;5109295;28;20505;-79
2023/12/01 03:10:48;;;;;;;14.50;10.07;;;3.10;99.90;;;;;;5097207;28;20218;-80
2023/12/01 03:13:13;;;;;;;17.57;11.57;;;3.20;99.90;;;;;;5096901;28;20206;-79
2023/12/01 03:15:41;;;;;;;14.93;10.90;;;3.20;99.90;;;;;;5096851;28;20173;-81
2023/12/01 03:18:07;;;;;;;15.03;11.03;;;3.20;99.90;;;;;;5097173;28;20192;-79
2023/12/01 03:20:32;;;;;;;15.13;10.97;;;3.20;99.90;;;;;;5096865;28;20172;-79
2023/12/01 03:22:58;;;;;;;15.23;10.20;;;3.10;99.90;;;;;;5096293;28;20221;-79
2023/12/01 03:25:24;;;;;;;15.00;11.20;;;3.10;99.90;;;;;;5097850;28;20232;-77
2023/12/01 03:27:50;;;;;;;16.03;10.80;;;3.10;99.90;;;;;;5097223;28;20268;-82
2023/12/01 03:30:17;;;;;;;15.53;10.97;;;3.10;99.90;;;;;;5096871;28;20170;-80
2023/12/01 03:32:45;;;;;;;15.43;11.13;;;3.10;99.90;;;;;;5096554;28;20254;-81
2023/12/01 03:35:22;;;;;;;14.13;10.40;;;3.10;99.90;;;;;;5096469;28;20602;-80
2023/12/01 03:37:49;;;;;;;17.97;11.83;;;3.10;99.90;;;;;;5096632;28;20172;-80
2023/12/01 03:40:15;;;;;;;16.63;11.00;;;3.10;99.90;;;;;;5096759;28;20182;-80
2023/12/01 03:42:48;;;;;;;16.10;11.53;;;3.10;99.90;;;;;;5110811;28;20281;-80
2023/12/01 03:45:15;;;;;;;19.17;12.27;;;3.10;99.90;;;;;;5097275;28;20291;-80
2023/12/01 03:47:46;;;;;;;14.70;11.10;;;3.10;99.90;;;;;;5096097;28;20199;-80
2023/12/01 03:50:12;;;;;;;18.70;11.63;;;3.00;99.90;;;;;;5096545;28;20164;-80
2023/12/01 03:52:43;;;;;;;18.23;12.00;;;3.00;99.90;;;;;;5096456;28;20174;-80
2023/12/01 03:55:10;;;;;;;16.73;10.87;;;3.00;99.90;;;;;;5097736;28;20163;-78
2023/12/01 03:57:39;;;;;;;16.83;11.17;;;3.00;99.90;;;;;;5095874;28;20211;-80
2023/12/01 04:00:13;;;;;;;14.37;10.73;;;3.00;99.90;;;;;;5078587;28;20264;-79
2023/12/01 04:02:41;;;;;;;13.33;10.17;;;2.90;99.90;;;;;;5079155;28;20177;-81
2023/12/01 04:05:07;;;;;;;16.67;11.20;;;2.90;99.90;;;;;;5095979;28;20171;-78
2023/12/01 04:07:34;;;;;;;15.30;10.70;;;2.90;99.90;;;;;;5095537;28;20610;-79
2023/12/01 04:10:00;;;;;;;17.33;11.80;;;3.00;99.90;;;;;;5096489;28;20192;-80
2023/12/01 04:12:26;;;;;;;16.07;11.10;;;3.00;99.90;;;;;;5096114;28;20170;-80
2023/12/01 04:14:51;;;;;;;17.17;12.13;;;3.00;99.90;;;;;;5095967;28;20171;-79
2023/12/01 04:17:18;;;;;;;19.30;14.30;;;2.70;99.90;;;;;;5096753;28;20166;-78
2023/12/01 04:19:43;;;;;;;23.53;14.63;;;2.60;99.90;;;;;;5098606;28;20179;-79
2023/12/01 04:22:09;;;;;;;17.43;13.57;;;2.60;99.90;;;;;;5105633;28;20205;-80
2023/12/01 04:24:35;;;;;;;22.97;14.40;;;2.60;99.90;;;;;;5114173;28;20177;-78
2023/12/01 04:27:04;;;;;;;21.83;14.57;;;2.70;99.90;;;;;;5093467;28;20170;-80
2023/12/01 04:29:31;;;;;;;23.00;14.77;;;2.80;99.90;;;;;;5095998;28;20178;-79
2023/12/01 04:31:57;;;;;;;20.73;14.77;;;2.80;99.90;;;;;;5096058;28;20179;-81
2023/12/01 04:34:26;;;;;;;21.20;14.30;;;2.60;99.90;;;;;;5095469;28;20649;-78
2023/12/01 04:36:53;;;;;;;23.13;14.23;;;2.60;99.90;;;;;;5095276;28;20332;-80
2023/12/01 04:39:20;;;;;;;21.20;14.00;;;2.70;99.90;;;;;;5096393;28;20178;-78
2023/12/01 04:41:47;;;;;;;19.77;14.23;;;2.70;99.90;;;;;;5107476;28;20176;-79
2023/12/01 04:44:13;;;;;;;19.47;13.93;;;2.80;99.90;;;;;;5095322;28;20688;-78
2023/12/01 04:46:38;;;;;;;21.60;14.43;;;2.90;99.90;;;;;;5077608;28;20220;-79
2023/12/01 04:49:08;;;;;;;20.57;14.70;;;3.00;99.90;;;;;;5095338;28;20209;-79
2023/12/01 04:51:37;;;;;;;22.13;14.97;;;2.90;99.90;;;;;;5094255;28;20161;-80
2023/12/01 04:54:07;;;;;;;21.23;14.93;;;2.90;99.90;;;;;;5076917;28;20179;-78
2023/12/01 04:56:33;;;;;;;20.77;14.20;;;3.00;99.90;;;;;;5094466;28;20578;-80
2023/12/01 04:59:01;;;;;;;19.60;14.53;;;2.90;99.90;;;;;;5094770;28;20174;-78
2023/12/01 05:01:27;;;;;;;18.83;13.83;;;2.90;99.90;;;;;;5094984;28;20262;-81
2023/12/01 05:03:52;;;;;;;19.40;13.60;;;3.00;99.90;;;;;;5094867;28;20204;-78
2023/12/01 05:06:18;;;;;;;23.83;14.90;;;3.00;99.90;;;;;;5094706;28;20222;-81
2023/12/01 05:08:44;;;;;;;22.07;14.90;;;3.00;99.90;;;;;;5094569;28;20205;-78
2023/12/01 05:11:11;;;;;;;18.07;14.27;;;3.00;99.90;;;;;;5094758;28;20173;-79
2023/12/01 05:13:36;;;;;;;23.43;15.30;;;3.00;99.90;;;;;;5093796;28;20202;-81
2023/12/01 05:16:04;;;;;;;19.77;14.27;;;3.10;99.90;;;;;;5094872;28;20194;-80
2023/12/01 05:18:30;;;;;;;21.63;14.43;;;3.00;99.90;;;;;;5076656;28;20174;-79
2023/12/01 05:20:56;;;;;;;20.10;14.83;;;3.10;99.90;;;;;;5094819;28;20181;-80
2023/12/01 05:23:21;;;;;;;21.63;15.13;;;3.10;99.90;;;;;;5094607;28;20620;-78
2023/12/01 05:25:50;;;;;;;22.67;14.90;;;3.10;99.90;;;;;;5077983;28;20183;-79
2023/12/01 05:28:17;;;;;;;19.00;13.47;;;3.00;99.90;;;;;;5093781;28;20204;-79
2023/12/01 05:30:46;;;;;;;20.10;14.43;;;3.00;99.90;;;;;;5095074;28;20625;-81
2023/12/01 05:33:11;;;;;;;23.10;15.40;;;3.00;99.90;;;;;;5077133;28;20203;-79
2023/12/01 05:35:39;;;;;;;20.47;14.53;;;3.00;99.90;;;;;;5093994;28;20694;-77
2023/12/01 05:38:05;;;;;;;20.83;14.77;;;2.90;99.90;;;;;;5094018;28;20262;-78
2023/12/01 05:40:38;;;;;;;22.80;14.37;;;2.90;99.90;;;;;;5095384;28;20165;-79
2023/12/01 05:43:05;;;;;;;22.87;14.43;;;2.80;99.90;;;;;;5095316;28;20185;-77
2023/12/01 05:45:33;;;;;;;20.57;14.13;;;2.90;99.90;;;;;;5108415;28;20161;-79
2023/12/01 05:47:59;;;;;;;22.40;14.83;;;2.90;99.90;;;;;;5101445;28;20207;-80
2023/12/01 05:50:30;;;;;;;22.40;14.47;;;2.90;99.90;;;;;;5075830;28;20230;-80
2023/12/01 05:52:57;;;;;;;22.90;14.70;;;2.90;99.90;;;;;;5094591;28;20227;-78
2023/12/01 05:55:25;;;;;;;22.67;14.67;;;2.90;99.90;;;;;;5094087;28;20169;-79
2023/12/01 05:57:54;;;;;;;23.57;14.13;;;2.90;99.90;;;;;;5094326;28;20183;-78
2023/12/01 06:00:21;;;;;;;25.30;15.73;;;2.90;99.90;;;;;;5094862;28;20267;-78
2023/12/01 06:02:49;;;;;;;22.23;14.20;;;2.90;99.90;;;;;;5098021;28;20175;-78
2023/12/01 06:05:17;;;;;;;24.17;15.20;;;2.90;99.90;;;;;;5103244;28;20175;-79
2023/12/01 06:07:44;;;;;;;22.40;15.10;;;2.90;99.90;;;;;;5096995;28;20230;-77
2023/12/01 06:10:13;;;;;;;22.07;14.30;;;2.90;99.90;;;;;;5094136;28;20175;-78
2023/12/01 06:12:39;;;;;;;23.27;15.13;;;3.00;99.90;;;;;;5093880;28;20176;-80
2023/12/01 06:15:07;;;;;;;22.27;14.40;;;3.00;99.90;;;;;;5093887;28;20198;-78
2023/12/01 06:17:33;;;;;;;22.77;14.53;;;2.90;99.90;;;;;;5094318;28;20181;-80
2023/12/01 06:19:59;;;;;;;20.97;13.80;;;2.90;99.90;;;;;;5079834;28;20265;-78
2023/12/01 06:22:25;;;;;;;21.63;13.70;;;2.80;99.90;;;;;;5075795;28;20281;-80
2023/12/01 06:24:50;;;;;;;27.07;15.37;;;2.80;99.90;;;;;;5079994;28;20182;-78
2023/12/01 06:27:17;;;;;;;26.37;15.07;;;2.80;99.90;;;;;;5083145;28;20237;-80
2023/12/01 06:29:44;;;;;;;28.47;15.40;;;2.80;99.90;;;;;;5075797;28;20184;-80
2023/12/01 06:32:10;;;;;;;21.20;14.47;;;2.80;99.90;;;;;;5094645;28;20178;-79
2023/12/01 06:34:35;;;;;;;22.40;14.77;;;2.80;99.90;;;;;;5075865;28;20194;-80
2023/12/01 06:37:01;;;;;;;24.13;15.97;;;2.70;99.90;;;;;;5093548;28;20227;-78
2023/12/01 06:39:27;;;;;;;24.43;16.07;;;2.70;99.90;;;;;;5094708;28;20221;-79
2023/12/01 06:41:53;;;;;;;24.53;14.93;;;2.80;99.90;;;;;;5103117;28;20174;-77
2023/12/01 06:44:20;;;;;;;24.97;15.37;;;2.80;99.90;;;;;;5098969;28;20263;-77
2023/12/01 06:46:46;;;;;;;26.30;16.90;;;2.90;99.90;;;;;;5099841;28;20231;-78
2023/12/01 06:49:12;;;;;;;28.33;16.27;;;2.90;99.90;;;;;;5104954;28;20687;-78
2023/12/01 06:51:38;;;;;;;26.47;14.80;;;3.00;99.90;;;;;;5116806;28;20168;-77
2023/12/01 06:54:04;;;;;;;27.13;15.57;;;3.00;99.90;;;;;;5112006;28;20216;-77
2023/12/01 06:56:30;;;;;;;25.20;15.30;;;3.00;99.90;;;;;;5100878;28;20563;-77
2023/12/01 06:58:55;;;;;;;26.70;15.53;;;3.10;99.90;;;;;;5114941;28;20190;-78
2023/12/01 07:01:21;;;;;;;24.87;14.90;;;3.10;99.90;;;;;;5109294;28;20182;-77
2023/12/01 07:03:48;;;;;;;24.97;14.93;;;3.10;99.90;;;;;;5101449;28;20172;-79
2023/12/01 07:06:14;;;;;;;24.53;14.60;;;3.20;99.90;;;;;;5102300;28;20299;-79
2023/12/01 07:08:40;;;;;;;29.73;15.87;;;3.40;99.90;;;;;;5097088;28;20206;-78
2023/12/01 07:11:07;;;;;;;28.80;16.03;;;3.60;99.90;;;;;;5097153;28;20171;-80
2023/12/01 07:13:33;;;;;;;28.57;16.00;;;3.70;99.90;;;;;;5097112;28;20174;-81
2023/12/01 07:15:58;;;;;;;29.13;16.97;;;3.70;99.90;;;;;;5096606;28;20173;-79
2023/12/01 07:18:25;;;;;;;24.87;15.20;;;3.50;99.90;;;;;;5096300;28;20179;-78
2023/12/01 07:20:51;;;;;;;26.83;15.70;;;3.50;99.90;;;;;;5096525;28;20177;-77
2023/12/01 07:23:19;;;;;;;21.17;15.27;;;3.40;99.90;;;;;;5098343;28;20175;-77
2023/12/01 07:25:50;;;;;;;26.97;15.70;;;3.30;99.90;;;;;;5088165;28;20304;-76
2023/12/01 07:28:16;;;;;;;25.40;15.70;;;3.30;99.90;;;;;;5076668;28;20569;-79
2023/12/01 07:30:41;;;;;;;20.20;14.23;;;3.30;99.90;;;;;;5076942;28;20177;-80
2023/12/01 07:33:08;;;;;;;24.63;15.80;;;3.20;99.90;;;;;;5076296;28;20261;-78
2023/12/01 07:35:34;;;;;;;22.50;14.87;;;3.20;99.90;;;;;;5076578;28;20178;-80
2023/12/01 07:38:01;;;;;;;30.20;15.60;;;3.20;99.90;;;;;;5076346;28;20168;-80
2023/12/01 07:40:27;;;;;;;26.07;16.10;;;3.20;99.90;;;;;;5076381;28;20169;-80
2023/12/01 07:42:57;;;;;;;25.00;15.70;;;3.20;99.90;;;;;;5058391;28;20250;-80
2023/12/01 07:45:23;;;;;;;24.87;14.97;;;3.30;99.90;;;;;;5076980;28;20633;-78
2023/12/01 07:47:51;;;;;;;26.30;15.80;;;3.30;99.90;;;;;;5076235;28;20292;-79
2023/12/01 07:50:18;;;;;;;22.40;15.17;;;3.40;99.90;;;;;;5080477;28;20231;-80
2023/12/01 07:52:47;;;;;;;30.67;14.87;;;3.50;99.90;;;;;;5077387;28;20171;-81
2023/12/01 07:55:13;;;;;;;27.33;16.30;;;3.50;99.90;;;;;;5059820;28;20219;-78
2023/12/01 07:57:39;;;;;;;28.93;16.73;;;3.60;99.90;;;;;;5076181;28;20297;-79
2023/12/01 08:00:14;;;;;;;25.63;16.30;;;3.60;99.90;;;;;;5075749;28;20503;-76
2023/12/01 08:02:43;;;;;;;26.27;16.13;;;3.60;99.90;;;;;;5076232;28;20229;-80
2023/12/01 08:05:13;;;;;;;24.90;15.27;;;3.50;99.90;;;;;;5076485;28;20216;-78
2023/12/01 08:08:00;;;;;;;28.93;16.07;;;3.50;99.90;;;;;;5076788;28;20280;-79
2023/12/01 08:10:27;;;;;;;24.27;15.37;;;3.40;99.90;;;;;;5081992;28;20217;-77
2023/12/01 08:12:56;;;;;;;28.47;17.67;;;3.40;99.90;;;;;;5076907;28;20252;-79
2023/12/01 08:15:22;;;;;;;23.57;16.07;;;3.50;99.90;;;;;;5077301;28;20172;-80
2023/12/01 08:17:49;;;;;;;27.80;16.50;;;3.40;99.90;;;;;;5077074;28;20175;-77
2023/12/01 08:20:18;;;;;;;27.27;15.50;;;3.50;99.90;;;;;;5077568;28;20169;-76
2023/12/01 08:22:46;;;;;;;28.90;16.40;;;3.50;99.90;;;;;;5081350;28;20175;-80
2023/12/01 08:25:15;;;;;;;26.90;15.37;;;3.60;99.90;;;;;;5075062;28;20171;-79
2023/12/01 08:27:41;;;;;;;25.13;15.13;;;3.60;99.90;;;;;;5085739;28;20210;-77
2023/12/01 08:30:07;;;;;;;29.17;16.77;;;3.50;99.90;;;;;;5090510;28;20187;-77
2023/12/01 08:32:33;;;;;;;29.03;16.70;;;3.50;99.90;;;;;;5060351;28;20194;-76
2023/12/01 08:35:01;;;;;;;25.17;15.87;;;3.50;99.90;;;;;;5076633;28;20175;-77
2023/12/01 08:37:27;;;;;;;23.87;15.63;;;3.50;99.90;;;;;;5075777;28;20258;-79
2023/12/01 08:39:52;;;;;;;22.63;14.87;;;3.50;99.90;;;;;;5075078;28;20666;-77
2023/12/01 08:42:19;;;;;;;22.77;15.23;;;3.50;99.90;;;;;;5077316;28;20190;-80
2023/12/01 08:44:45;;;;;;;25.80;15.57;;;3.50;99.90;;;;;;5057572;28;20178;-78
2023/12/01 08:47:13;;;;;;;23.13;14.83;;;3.50;99.90;;;;;;5060571;28;20179;-77
2023/12/01 08:49:40;;;;;;;22.33;15.13;;;3.50;99.90;;;;;;5088137;28;20663;-76
2023/12/01 08:52:07;;;;;;;21.57;14.57;;;3.50;99.90;;;;;;5082882;28;20174;-78
2023/12/01 08:54:34;;;;;;;21.90;14.10;;;3.60;99.90;;;;;;5075793;28;20179;-79
2023/12/01 08:57:00;;;;;;;23.10;13.60;;;3.60;99.90;;;;;;5056917;28;20175;-77
2023/12/01 08:59:27;;;;;;;19.93;13.40;;;3.70;99.90;;;;;;5074603;28;20228;-77
2023/12/01 09:01:53;;;;;;;21.73;13.83;;;3.70;99.90;;;;;;5084390;28;20245;-78
2023/12/01 09:04:18;;;;;;;22.70;14.03;;;3.70;99.90;;;;;;5081993;28;20177;-77
2023/12/01 09:06:44;;;;;;;22.80;13.67;;;3.80;99.90;;;;;;5074384;28;20225;-77
2023/12/01 09:09:12;;;;;;;18.67;13.27;;;3.70;99.90;;;;;;5074318;28;20269;-78
2023/12/01 09:11:38;;;;;;;21.87;14.33;;;3.60;99.90;;;;;;5074299;28;20175;-78
2023/12/01 09:14:03;;;;;;;23.53;14.43;;;3.70;99.90;;;;;;5074765;28;20731;-76
2023/12/01 09:16:29;;;;;;;22.17;14.30;;;3.70;99.90;;;;;;5074508;28;20181;-78
2023/12/01 09:18:55;;;;;;;23.47;15.50;;;3.60;99.90;;;;;;5062305;28;20185;-78
2023/12/01 09:21:22;;;;;;;21.27;13.50;;;3.70;99.90;;;;;;5093973;28;20176;-79
2023/12/01 09:23:49;;;;;;;19.67;13.50;;;3.90;99.90;;;;;;5091800;28;20172;-81
2023/12/01 09:26:18;;;;;;;22.57;15.23;;;4.20;99.90;;;;;;5075183;28;20195;-80
2023/12/01 09:28:44;;;;;;;21.20;14.57;;;4.40;99.90;;;;;;5074352;28;20703;-77
2023/12/01 09:31:11;;;;;;;21.17;15.10;;;4.30;99.90;;;;;;5075488;28;20203;-77
2023/12/01 09:33:37;;;;;;;28.20;15.70;;;4.20;99.90;;;;;;5076079;28;20171;-81
2023/12/01 09:36:04;;;;;;;24.87;16.17;;;4.20;99.90;;;;;;5075049;28;20179;-80
2023/12/01 09:38:31;;;;;;;22.93;15.30;;;4.20;99.90;;;;;;5073804;28;20233;-79
2023/12/01 09:40:57;;;;;;;24.17;14.73;;;4.10;99.90;;;;;;5085216;28;20179;-78
2023/12/01 09:43:23;;;;;;;20.23;13.70;;;4.10;99.90;;;;;;5075472;28;20580;-78
2023/12/01 09:45:53;;;;;;;24.97;14.47;;;4.10;99.90;;;;;;5074300;28;20626;-80
2023/12/01 09:48:19;;;;;;;24.00;15.13;;;4.10;99.90;;;;;;5073594;28;20249;-78
2023/12/01 09:50:49;;;;;;;22.57;14.17;;;4.10;99.90;;;;;;5074243;28;20178;-80
2023/12/01 09:53:16;;;;;;;18.80;13.43;;;4.10;99.90;;;;;;5074735;28;20223;-81
2023/12/01 09:55:43;;;;;;;20.00;14.00;;;4.10;99.90;;;;;;5074541;28;20181;-76
2023/12/01 09:58:10;;;;;;;17.73;12.90;;;4.20;99.90;;;;;;5074710;28;20174;-80
2023/12/01 10:00:36;;;;;;;21.83;14.30;;;4.10;99.90;;;;;;5074837;28;20172;-79
2023/12/01 10:03:02;;;;;;;23.37;14.27;;;4.10;99.90;;;;;;5074165;28;20181;-79
2023/12/01 10:05:34;;;;;;;21.67;14.47;;;4.20;99.90;;;;;;5073931;28;20669;-77
2023/12/01 10:07:59;;;;;;;21.47;14.60;;;4.10;99.90;;;;;;5073688;28;20299;-78
2023/12/01 10:10:26;;;;;;;20.83;13.83;;;4.10;99.90;;;;;;5074180;28;20179;-77
2023/12/01 10:13:04;;;;;;;24.17;14.37;;;4.20;99.90;;;;;;5074243;28;20226;-80
2023/12/01 10:15:31;;;;;;;24.10;14.43;;;4.20;99.90;;;;;;5056446;28;20205;-78
2023/12/01 10:18:16;;;;;;;20.07;14.00;;;4.30;99.90;;;;;;5075014;28;20170;-78
2023/12/01 10:21:07;;;;;;;19.03;13.93;;;4.20;99.90;;;;;;5074586;28;20176;-77
2023/12/01 10:23:33;;;;;;;21.70;12.93;;;4.20;99.90;;;;;;5074416;28;20183;-79
2023/12/01 10:26:03;;;;;;;21.20;14.10;;;4.20;99.90;;;;;;5074371;28;20178;-76
2023/12/01 10:28:43;;;;;;;18.07;13.27;;;4.20;99.90;;;;;;5074310;28;20219;-79
2023/12/01 10:31:09;;;;;;;18.93;12.70;;;4.30;99.90;;;;;;5074011;28;20180;-78
2023/12/01 10:33:36;;;;;;;20.20;13.80;;;4.30;99.90;;;;;;5073726;28;20194;-78
2023/12/01 10:36:11;;;;;;;19.93;12.93;;;4.30;99.90;;;;;;5056004;28;20194;-79
2023/12/01 10:38:37;;;;;;;19.03;13.47;;;4.30;99.90;;;;;;5056193;28;20187;-78
2023/12/01 10:41:04;;;;;;;20.73;13.57;;;4.30;99.90;;;;;;5079031;28;20172;-76
2023/12/01 10:43:31;;;;;;;25.93;15.13;;;4.30;99.90;;;;;;5082986;28;20178;-78
2023/12/01 10:46:02;;;;;;;21.67;14.00;;;4.30;99.90;;;;;;5089034;28;20168;-78
2023/12/01 10:48:30;;;;;;;20.47;13.93;;;4.30;99.90;;;;;;5077559;28;20278;-76
2023/12/01 10:50:56;;;;;;;19.63;13.57;;;4.30;99.90;;;;;;5074911;28;20172;-77
2023/12/01 10:53:24;;;;;;;20.67;13.87;;;4.40;99.90;;;;;;5073580;28;20184;-78
2023/12/01 10:55:51;;;;;;;21.83;13.93;;;4.40;99.90;;;;;;5074044;28;20175;-79
2023/12/01 10:58:25;;;;;;;20.43;13.77;;;4.30;99.90;;;;;;5074634;28;20181;-76
2023/12/01 11:00:54;;;;;;;21.83;13.83;;;4.40;99.90;;;;;;5086217;28;20211;-77
2023/12/01 11:03:25;;;;;;;19.90;13.57;;;4.40;99.90;;;;;;5078019;28;20175;-78
2023/12/01 11:06:01;;;;;;;22.33;14.17;;;4.40;99.90;;;;;;5074017;28;20172;-79
2023/12/01 11:08:49;;;;;;;22.87;13.57;;;4.50;99.90;;;;;;5073354;28;20198;-77
2023/12/01 11:11:47;;;;;;;17.70;13.27;;;4.40;99.90;;;;;;5056087;28;20189;-79
2023/12/01 11:14:17;;;;;;;19.97;14.27;;;4.40;99.90;;;;;;5074153;28;20231;-77
2023/12/01 11:16:43;;;;;;;18.03;13.17;;;4.40;99.90;;;;;;5056282;28;20175;-79
2023/12/01 11:19:12;;;;;;;21.07;13.80;;;4.40;99.90;;;;;;5074179;28;20175;-77
2023/12/01 11:21:42;;;;;;;18.80;13.43;;;4.30;99.90;;;;;;5056092;28;20578;-77
2023/12/01 11:24:32;;;;;;;20.13;14.00;;;4.30;99.90;;;;;;5078775;28;20229;-79
2023/12/01 11:27:05;;;;;;;21.47;15.07;;;4.30;99.90;;;;;;5081344;28;20184;-77
2023/12/01 11:29:36;;;;;;;17.87;13.77;;;4.30;99.90;;;;;;5084031;28;20179;-79
2023/12/01 11:32:03;;;;;;;23.00;14.67;;;4.20;99.90;;;;;;5077954;28;20158;-77
2023/12/01 11:34:30;;;;;;;20.37;13.57;;;4.20;99.90;;;;;;5077551;28;20174;-78
2023/12/01 11:36:56;;;;;;;22.50;14.13;;;4.30;99.90;;;;;;5077242;28;20225;-78
2023/12/01 11:39:31;;;;;;;22.13;15.00;;;4.20;99.90;;;;;;5077178;28;20213;-78
2023/12/01 11:41:57;;;;;;;23.43;15.33;;;4.30;99.90;;;;;;5076403;28;20216;-78
2023/12/01 11:44:32;;;;;;;24.43;14.93;;;4.30;99.90;;;;;;5077038;28;20389;-79
2023/12/01 11:47:00;;;;;;;21.87;15.13;;;4.40;99.90;;;;;;5077712;28;20156;-78
2023/12/01 11:49:31;;;;;;;21.40;14.30;;;4.40;99.90;;;;;;5090061;28;20217;-78
2023/12/01 11:51:58;;;;;;;24.00;15.17;;;4.20;99.90;;;;;;5093321;28;20168;-79
2023/12/01 11:54:24;;;;;;;21.03;14.70;;;4.20;99.90;;;;;;5077889;28;20362;-79
2023/12/01 11:56:52;;;;;;;21.00;14.73;;;4.30;99.90;;;;;;5077280;28;20176;-78
2023/12/01 11:59:18;;;;;;;22.97;15.47;;;4.40;99.90;;;;;;5077430;28;20185;-78
2023/12/01 12:01:45;;;;;;;24.73;16.07;;;4.50;99.90;;;;;;5076536;28;20184;-79
2023/12/01 12:04:16;;;;;;;26.40;16.83;;;4.60;99.90;;;;;;5077418;28;20166;-80
2023/12/01 12:06:43;;;;;;;25.30;15.03;;;4.60;99.90;;;;;;5076559;28;20219;-79
2023/12/01 12:09:10;;;;;;;21.33;15.07;;;4.70;99.90;;;;;;5076768;28;20306;-78
2023/12/01 12:11:36;;;;;;;20.83;14.93;;;4.80;99.90;;;;;;5076446;28;20172;-78
2023/12/01 12:14:06;;;;;;;21.37;13.77;;;4.80;99.90;;;;;;5077996;28;20165;-78
2023/12/01 12:16:34;;;;;;;22.17;14.13;;;4.80;99.90;;;;;;5090071;28;20213;-79
2023/12/01 12:19:00;;;;;;;20.03;13.70;;;4.90;99.90;;;;;;5088128;28;20682;-78
2023/12/01 12:21:30;;;;;;;17.67;12.70;;;4.90;99.90;;;;;;5097742;28;20183;-77
2023/12/01 12:23:56;;;;;;;21.33;14.23;;;4.90;99.90;;;;;;5077723;28;20186;-79
2023/12/01 12:26:28;;;;;;;19.77;13.97;;;4.80;99.90;;;;;;5076238;28;20178;-78
2023/12/01 12:29:02;;;;;;;18.30;13.97;;;4.80;99.90;;;;;;5075927;28;20297;-79
2023/12/01 12:31:35;;;;;;;18.63;13.53;;;4.80;99.90;;;;;;5075485;28;20159;-76
2023/12/01 12:34:03;;;;;;;20.60;14.53;;;4.80;99.90;;;;;;5075660;28;20184;-77
2023/12/01 12:36:33;;;;;;;20.40;14.77;;;4.80;99.90;;;;;;5086491;28;20195;-77